Terminal Aerodrome Forecast
Issued by NWS Green Bay, WI

Home | Current Version | Previous Version | Graphics & Text | Print | Product List | Glossary On
Versions: 1 2 3 4 5 6 7 8 9 10 11 12 13 14 15 16 17 18 19 20 21 22 23 24 25 26 27
000
FTUS43 KGRB 172340
TAFGRB
TAF
KGRB 172340Z 1800/1824 20005KT 6SM -RA BR SCT008 OVC015
     FM180300 24004KT 3SM -SHRA BR OVC008
     FM180600 33004KT 1 1/2SM -DZ BR OVC004
     FM181000 35010KT 4SM -DZ BR OVC008
     FM181400 35015G22KT P6SM OVC020
     FM181800 32016G24KT P6SM SCT025 OVC040=

USA.gov is the U.S. government's official web portal to all federal, state and local government web resources and services.